MUCM/CMW METAR and TAF weather

Enter ICAO airport designator
Station Type Date Time Source
MUCM METAR 2019/06/17 12:50 UTC NOAA

MUCM 171250Z 08011KT 9000 FEW015 BKN250 27/24 Q1017


Station Type Date Time Source
MUCM Decoded METAR 2019/06/17 12:50 UTC NOAA

Camaguey Aeropuerto, Cuba (MUCM) 21-25N 077-51W 118M
Jun 17, 2019 - 08:50 AM EDT / 2019.06.17 1250 UTC
Wind: from the E (080 degrees) at 13 MPH (11 KT):0
Visibility: 5 mile(s):0
Sky conditions: mostly cloudy
Temperature: 80 F (27 C)
Dew Point: 75 F (24 C)
Relative Humidity: 83%
Pressure (altimeter): 30.03 in. Hg (1017 hPa)
ob: MUCM 171250Z 08011KT 9000 FEW015 BKN250 27/24 Q1017
cycle: 13

Station Type Date Time Source
MUCM TAF 2019/06/17 12:06 UTC NOAA

TAF MUCM 171100Z 1712/1812 VRB03KT 9000 SCT020
BECMG 1715/1717 10008KT
TEMPO 1718/1724 3000 TSRA SCT018CB BKN020

Example: see airport list